createdAt,value
2019-04-07T00:01:18.513Z,7.39
2019-04-07T00:03:51.672Z,7.28
2019-04-07T00:06:24.464Z,7.38
2019-04-07T00:08:57.586Z,7.32
2019-04-07T00:11:28.932Z,7.24
2019-04-07T00:14:01.375Z,7.26
2019-04-07T00:16:35.165Z,7.38
2019-04-07T00:19:08.835Z,7.26
2019-04-07T00:21:42.398Z,7.16
2019-04-07T00:24:16.612Z,7.21
2019-04-07T00:26:51.252Z,7.26
2019-04-07T00:29:25.337Z,7.29
2019-04-07T00:31:59.136Z,7.21
2019-04-07T00:34:32.198Z,7.16
2019-04-07T00:37:05.670Z,7.33
2019-04-07T00:39:39.682Z,7.20
2019-04-07T00:42:13.576Z,7.00
2019-04-07T00:44:47.476Z,7.05
2019-04-07T00:47:21.893Z,7.20
2019-04-07T00:49:55.610Z,6.88
2019-04-07T00:52:29.475Z,6.80
2019-04-07T00:55:03.440Z,6.61
2019-04-07T00:57:37.468Z,6.68
2019-04-07T01:00:12.386Z,6.57
2019-04-07T01:02:46.539Z,6.66
2019-04-07T01:05:20.538Z,6.60
2019-04-07T01:07:55.230Z,6.45
2019-04-07T01:10:28.905Z,6.34
2019-04-07T01:13:04.418Z,6.26
2019-04-07T01:15:37.263Z,6.17
2019-04-07T01:18:10.053Z,6.07
2019-04-07T01:20:45.180Z,6.07
2019-04-07T01:23:19.221Z,6.15
2019-04-07T01:25:52.876Z,6.22
2019-04-07T01:28:24.228Z,6.05
2019-04-07T01:30:57.866Z,5.87
2019-04-07T01:33:32.330Z,5.81
2019-04-07T01:36:05.933Z,5.76
2019-04-07T01:38:38.578Z,5.65
2019-04-07T01:41:23.969Z,5.51
2019-04-07T01:44:15.523Z,5.48
2019-04-07T01:47:11.347Z,5.48
2019-04-07T01:50:10.149Z,5.39
2019-04-07T01:53:08.866Z,5.34
2019-04-07T01:55:56.473Z,5.21
2019-04-07T01:58:48.203Z,5.17
2019-04-07T02:01:31.208Z,5.21
2019-04-07T02:04:15.765Z,5.09
2019-04-07T02:07:13.429Z,5.23
2019-04-07T02:10:24.192Z,5.09
2019-04-07T02:13:14.969Z,5.15
2019-04-07T02:16:24.748Z,5.01
2019-04-07T02:19:06.243Z,4.88
2019-04-07T02:21:58.266Z,4.78
2019-04-07T02:24:42.244Z,4.76
2019-04-07T02:27:37.565Z,4.81
2019-04-07T02:30:29.051Z,4.69
2019-04-07T02:33:19.954Z,4.59
2019-04-07T02:36:17.861Z,4.61
2019-04-07T02:39:13.126Z,4.54
2019-04-07T02:42:15.281Z,4.61
2019-04-07T02:45:00.004Z,4.93
2019-04-07T02:47:54.906Z,4.80
2019-04-07T02:50:52.917Z,4.50
2019-04-07T02:53:39.172Z,4.37
2019-04-07T02:56:32.548Z,4.35
2019-04-07T02:59:14.568Z,4.53
2019-04-07T03:02:12.970Z,4.47
2019-04-07T03:05:04.810Z,4.28
2019-04-07T03:08:10.241Z,4.18
2019-04-07T03:11:05.657Z,4.13
2019-04-07T03:13:52.221Z,4.04
2019-04-07T03:16:53.461Z,3.98
2019-04-07T03:19:31.884Z,4.01
2019-04-07T03:22:13.232Z,4.08
2019-04-07T03:24:56.994Z,4.43
2019-04-07T03:28:04.736Z,4.32
2019-04-07T03:30:58.455Z,4.11
2019-04-07T03:33:56.462Z,3.96
2019-04-07T03:37:13.529Z,3.84
2019-04-07T03:39:51.287Z,3.67
2019-04-07T03:42:34.719Z,3.75
2019-04-07T03:45:27.099Z,3.95
2019-04-07T03:48:10.286Z,3.78
2019-04-07T03:50:52.798Z,3.80
2019-04-07T03:53:39.863Z,3.80
2019-04-07T03:56:21.003Z,3.66
2019-04-07T03:59:16.832Z,3.53
2019-04-07T04:02:14.229Z,3.45
2019-04-07T04:05:05.163Z,3.42
2019-04-07T04:07:47.477Z,3.43
2019-04-07T04:10:36.542Z,3.46
2019-04-07T04:13:38.136Z,3.42
2019-04-07T04:16:15.226Z,3.38
2019-04-07T04:18:48.839Z,3.23
2019-04-07T04:21:20.245Z,3.18
2019-04-07T04:23:53.336Z,3.21
2019-04-07T04:26:27.022Z,3.19
2019-04-07T04:28:59.832Z,3.10
2019-04-07T04:31:33.770Z,3.12
2019-04-07T04:34:07.863Z,3.04
2019-04-07T04:36:41.650Z,3.06
2019-04-07T04:39:18.587Z,3.01
2019-04-07T04:41:50.863Z,2.99
2019-04-07T04:44:25.668Z,3.03
2019-04-07T04:47:01.251Z,2.96
2019-04-07T04:49:35.454Z,2.85
2019-04-07T04:52:09.684Z,2.83
2019-04-07T04:54:43.619Z,2.84
2019-04-07T04:57:17.742Z,2.82
2019-04-07T04:59:52.685Z,2.83
2019-04-07T05:02:27.524Z,2.83
2019-04-07T05:05:02.450Z,2.82
2019-04-07T05:07:47.896Z,2.79
2019-04-07T05:10:10.735Z,2.82
2019-04-07T05:12:45.050Z,2.84
2019-04-07T05:15:18.624Z,2.81
2019-04-07T05:17:50.698Z,2.87
2019-04-07T05:20:24.025Z,2.99
2019-04-07T05:22:57.605Z,3.17
2019-04-07T05:25:31.480Z,3.23
2019-04-07T05:28:04.984Z,3.16
2019-04-07T05:30:39.167Z,3.27
2019-04-07T05:33:12.278Z,3.26
2019-04-07T05:35:45.752Z,3.29
2019-04-07T05:38:21.261Z,3.38
2019-04-07T05:40:55.354Z,3.34
2019-04-07T05:43:29.612Z,3.53
2019-04-07T05:46:05.899Z,3.57
2019-04-07T05:48:39.170Z,3.68
2019-04-07T05:51:13.398Z,3.79
2019-04-07T05:53:48.328Z,3.93
2019-04-07T05:56:25.989Z,3.95
2019-04-07T05:58:58.117Z,4.02
2019-04-07T06:01:33.390Z,4.65
2019-04-07T06:04:08.832Z,4.61
2019-04-07T06:06:43.121Z,4.43
2019-04-07T06:09:19.024Z,4.48
2019-04-07T06:11:52.263Z,4.52
2019-04-07T06:14:26.778Z,4.63
2019-04-07T06:17:00.933Z,4.79
2019-04-07T06:19:39.809Z,4.84
2019-04-07T06:22:11.075Z,5.19
2019-04-07T06:24:44.831Z,5.68
2019-04-07T06:27:18.775Z,5.65
2019-04-07T06:29:57.189Z,5.82
2019-04-07T06:32:27.492Z,5.92
2019-04-07T06:35:01.840Z,5.84
2019-04-07T06:37:36.327Z,5.97
2019-04-07T06:40:11.163Z,6.24
2019-04-07T06:42:45.693Z,6.72
2019-04-07T06:45:23.398Z,6.88
2019-04-07T06:48:01.660Z,7.29
2019-04-07T06:51:03.894Z,7.39
2019-04-07T06:54:06.020Z,7.61
2019-04-07T06:57:04.343Z,7.73
2019-04-07T06:59:52.829Z,7.94
2019-04-07T07:02:40.696Z,8.26
2019-04-07T07:05:35.401Z,8.39
2019-04-07T07:08:22.002Z,8.61
2019-04-07T07:11:24.468Z,8.61
2019-04-07T07:14:09.565Z,8.81
2019-04-07T07:17:06.399Z,8.93
2019-04-07T07:20:04.266Z,9.03
2019-04-07T07:22:49.711Z,9.25
2019-04-07T07:25:23.512Z,9.24
2019-04-07T07:28:00.036Z,9.54
2019-04-07T07:30:35.960Z,9.45
2019-04-07T07:33:13.586Z,9.66
2019-04-07T07:35:52.680Z,9.82
2019-04-07T07:38:31.077Z,9.90
2019-04-07T07:41:08.841Z,10.32
2019-04-07T07:43:48.548Z,10.22
2019-04-07T07:46:27.864Z,10.63
2019-04-07T07:49:02.190Z,10.39
2019-04-07T07:51:38.630Z,10.29
2019-04-07T07:54:16.180Z,10.61
2019-04-07T07:56:51.635Z,10.70
2019-04-07T07:59:38.442Z,10.75
2019-04-07T08:02:14.628Z,11.18
2019-04-07T08:04:48.828Z,11.37
2019-04-07T08:07:31.212Z,11.46
2019-04-07T08:10:29.063Z,11.68
2019-04-07T08:13:07.444Z,11.73
2019-04-07T08:15:46.963Z,11.90
2019-04-07T08:18:30.836Z,12.38
2019-04-07T08:21:21.406Z,12.63
2019-04-07T08:24:06.813Z,12.62
2019-04-07T08:26:42.134Z,12.79
2019-04-07T08:29:16.907Z,13.21
2019-04-07T08:31:52.633Z,12.97
2019-04-07T08:34:32.846Z,13.49
2019-04-07T08:37:06.042Z,13.53
2019-04-07T08:39:39.713Z,13.98
2019-04-07T08:42:18.612Z,14.45
2019-04-07T08:44:49.782Z,14.43
2019-04-07T08:47:23.430Z,14.84
2019-04-07T08:49:57.907Z,14.96
2019-04-07T08:52:31.622Z,15.25
2019-04-07T08:55:06.096Z,14.99
2019-04-07T08:57:40.118Z,15.10
2019-04-07T09:00:18.895Z,15.46
2019-04-07T09:03:01.687Z,15.31
2019-04-07T09:05:31.010Z,15.66
2019-04-07T09:08:06.043Z,15.89
2019-04-07T09:10:44.129Z,16.33
2019-04-07T09:13:18.414Z,16.08
2019-04-07T09:15:58.996Z,16.00
2019-04-07T09:19:01.837Z,16.09
2019-04-07T09:21:51.347Z,16.58
2019-04-07T09:24:39.777Z,17.03
2019-04-07T09:27:25.780Z,16.96
2019-04-07T09:30:17.822Z,17.77
2019-04-07T09:33:06.037Z,16.88
2019-04-07T09:36:07.993Z,17.58
2019-04-07T09:39:15.658Z,17.04
2019-04-07T09:42:07.808Z,18.15
2019-04-07T09:44:59.087Z,17.79
2019-04-07T09:48:00.631Z,18.36
2019-04-07T09:50:44.460Z,18.72
2019-04-07T09:53:40.314Z,18.76
2019-04-07T09:56:21.805Z,19.08
2019-04-07T09:59:19.259Z,19.23
2019-04-07T10:02:09.283Z,19.44
2019-04-07T10:05:04.570Z,20.03
2019-04-07T10:07:54.703Z,19.79
2019-04-07T10:10:37.150Z,19.58
2019-04-07T10:13:28.628Z,19.42
2019-04-07T10:16:27.031Z,19.60
2019-04-07T10:19:10.982Z,20.07
2019-04-07T10:22:15.183Z,20.60
2019-04-07T10:25:25.243Z,18.96
2019-04-07T10:28:23.376Z,19.71
2019-04-07T10:31:24.617Z,19.72
2019-04-07T10:34:27.186Z,20.89
2019-04-07T10:37:08.132Z,21.29
2019-04-07T10:40:02.778Z,21.71
2019-04-07T10:42:55.528Z,21.60
2019-04-07T10:45:47.022Z,21.58
2019-04-07T10:48:45.646Z,21.54
2019-04-07T10:51:30.881Z,22.49
2019-04-07T10:54:25.266Z,22.44
2019-04-07T10:57:14.333Z,21.15
2019-04-07T11:00:09.030Z,21.08
2019-04-07T11:03:06.678Z,21.63
2019-04-07T11:06:04.020Z,21.75
2019-04-07T11:09:05.982Z,22.05
2019-04-07T11:11:49.384Z,22.27
2019-04-07T11:15:00.897Z,21.79
2019-04-07T11:17:58.341Z,22.51
2019-04-07T11:20:40.855Z,23.04
2019-04-07T11:23:21.745Z,22.79
2019-04-07T11:26:12.471Z,22.93
2019-04-07T11:28:59.389Z,23.08
2019-04-07T11:31:37.321Z,22.56
2019-04-07T11:34:24.778Z,22.77
2019-04-07T11:37:12.028Z,23.28
2019-04-07T11:39:57.785Z,23.89
2019-04-07T11:42:50.780Z,23.16
2019-04-07T11:45:54.179Z,23.79
2019-04-07T11:48:27.561Z,23.03
2019-04-07T11:51:13.009Z,22.43
2019-04-07T11:53:57.766Z,23.72
2019-04-07T11:57:06.297Z,23.59
2019-04-07T12:00:08.649Z,22.79
2019-04-07T12:02:53.306Z,21.12
2019-04-07T12:05:46.339Z,22.00
2019-04-07T12:08:37.774Z,23.35
2019-04-07T12:11:24.666Z,23.76
2019-04-07T12:14:17.832Z,22.64
2019-04-07T12:17:13.785Z,22.69
2019-04-07T12:19:57.169Z,23.94
2019-04-07T12:22:42.593Z,24.07
2019-04-07T12:25:34.654Z,20.81
2019-04-07T12:28:34.375Z,21.45
2019-04-07T12:31:14.687Z,21.55
2019-04-07T12:34:26.518Z,22.75
2019-04-07T12:37:18.882Z,24.38
2019-04-07T12:40:22.327Z,22.87
2019-04-07T12:43:18.901Z,24.05
2019-04-07T12:46:01.263Z,22.94
2019-04-07T12:48:51.455Z,22.63
2019-04-07T12:51:40.945Z,24.78
2019-04-07T12:54:39.624Z,23.67
2019-04-07T12:57:30.560Z,22.71
2019-04-07T13:00:15.736Z,22.80
2019-04-07T13:03:18.152Z,25.18
2019-04-07T13:05:57.436Z,24.24
2019-04-07T13:08:36.810Z,23.20
2019-04-07T13:11:31.181Z,23.91
2019-04-07T13:14:25.675Z,26.07
2019-04-07T13:17:16.033Z,24.67
2019-04-07T13:19:59.093Z,24.87
2019-04-07T13:22:48.725Z,23.95
2019-04-07T13:25:58.998Z,23.71
2019-04-07T13:28:53.270Z,22.19
2019-04-07T13:31:38.458Z,22.80
2019-04-07T13:34:31.066Z,22.77
2019-04-07T13:37:22.053Z,22.90
2019-04-07T13:40:15.911Z,25.32
2019-04-07T13:43:04.253Z,22.52
2019-04-07T13:45:55.736Z,25.17
2019-04-07T13:48:52.168Z,25.44
2019-04-07T13:51:45.656Z,25.80
2019-04-07T13:54:34.749Z,24.23
2019-04-07T13:57:37.080Z,22.43
2019-04-07T14:00:37.092Z,22.11
2019-04-07T14:03:25.121Z,23.06
2019-04-07T14:06:23.709Z,23.85
2019-04-07T14:09:19.279Z,24.13
2019-04-07T14:12:15.485Z,23.92
2019-04-07T14:15:07.751Z,23.21
2019-04-07T14:17:50.898Z,24.28
2019-04-07T14:20:35.450Z,23.05
2019-04-07T14:23:22.515Z,24.21
2019-04-07T14:26:07.861Z,25.41
2019-04-07T14:28:59.910Z,25.00
2019-04-07T14:32:00.983Z,23.55
2019-04-07T14:34:52.998Z,24.80
2019-04-07T14:37:41.866Z,25.42
2019-04-07T14:40:29.152Z,26.37
2019-04-07T14:43:09.600Z,25.16
2019-04-07T14:45:53.498Z,24.38
2019-04-07T14:48:45.956Z,23.67
2019-04-07T14:51:53.679Z,23.54
2019-04-07T14:54:44.971Z,24.14
2019-04-07T14:57:26.092Z,23.93
2019-04-07T15:00:25.549Z,23.51
2019-04-07T15:03:00.947Z,23.96
2019-04-07T15:05:39.754Z,24.59
2019-04-07T15:12:14.708Z,25.55
2019-04-07T15:14:41.575Z,24.50
2019-04-07T15:17:15.298Z,25.02
2019-04-07T15:19:49.242Z,22.37
2019-04-07T15:22:28.747Z,23.73
2019-04-07T15:24:59.363Z,25.52
2019-04-07T15:27:36.903Z,24.15
2019-04-07T15:30:25.433Z,24.81
2019-04-07T15:33:02.405Z,24.05
2019-04-07T15:35:35.228Z,25.83
2019-04-07T15:38:09.825Z,26.27
2019-04-07T15:40:44.767Z,24.57
2019-04-07T15:43:19.622Z,24.43
2019-04-07T15:45:52.489Z,24.78
2019-04-07T15:48:27.114Z,24.55
2019-04-07T15:51:04.644Z,25.02
2019-04-07T15:53:44.594Z,22.35
2019-04-07T15:56:18.832Z,22.36
2019-04-07T15:58:52.933Z,22.23
2019-04-07T16:01:28.222Z,22.68
2019-04-07T16:04:02.604Z,22.07
2019-04-07T16:06:38.702Z,21.41
2019-04-07T16:09:31.410Z,20.47
2019-04-07T16:11:53.309Z,21.27
2019-04-07T16:14:27.437Z,20.86
2019-04-07T16:17:04.127Z,20.32
2019-04-07T16:19:41.533Z,20.59
2019-04-07T16:22:13.386Z,20.30
2019-04-07T16:24:47.403Z,20.76
2019-04-07T16:27:21.551Z,20.20
2019-04-07T16:30:01.094Z,20.02
2019-04-07T16:32:42.547Z,19.44
2019-04-07T16:35:16.608Z,19.41
2019-04-07T16:37:58.421Z,19.07
2019-04-07T16:40:33.902Z,18.55
2019-04-07T16:43:15.077Z,18.81
2019-04-07T16:45:45.901Z,19.11
2019-04-07T16:48:20.941Z,18.70
2019-04-07T16:50:55.445Z,18.52
2019-04-07T16:53:30.869Z,18.22
2019-04-07T16:56:04.110Z,18.66
2019-04-07T16:58:39.937Z,18.76
2019-04-07T17:01:15.929Z,18.44
2019-04-07T17:03:49.925Z,18.06
2019-04-07T17:06:25.104Z,18.32
2019-04-07T17:09:00.429Z,18.43
2019-04-07T17:11:38.828Z,17.85
2019-04-07T17:14:15.178Z,17.64
2019-04-07T17:16:50.387Z,17.40
2019-04-07T17:19:26.630Z,17.20
2019-04-07T17:22:01.688Z,16.89
2019-04-07T17:24:36.459Z,16.80
2019-04-07T17:27:11.731Z,16.65
2019-04-07T17:29:49.103Z,16.56
2019-04-07T17:32:23.144Z,16.57
2019-04-07T17:34:57.377Z,16.31
2019-04-07T17:37:31.948Z,16.24
2019-04-07T17:40:14.352Z,16.58
2019-04-07T17:42:50.916Z,16.62
2019-04-07T17:45:55.981Z,16.33
2019-04-07T17:48:47.602Z,16.30
2019-04-07T17:51:27.592Z,16.19
2019-04-07T17:54:23.031Z,15.69
2019-04-07T17:57:25.751Z,15.75
2019-04-07T18:00:19.343Z,15.66
2019-04-07T18:03:21.596Z,15.43
2019-04-07T18:06:07.394Z,15.44
2019-04-07T18:09:03.979Z,15.13
2019-04-07T18:11:47.207Z,14.97
2019-04-07T18:14:45.805Z,14.89
2019-04-07T18:17:34.422Z,15.03
2019-04-07T18:20:41.380Z,14.78
2019-04-07T18:23:26.345Z,14.58
2019-04-07T18:26:13.046Z,14.48
2019-04-07T18:29:04.506Z,14.27
2019-04-07T18:31:56.683Z,14.27
2019-04-07T18:34:43.059Z,14.13
2019-04-07T18:37:39.724Z,13.97
2019-04-07T18:40:30.691Z,13.83
2019-04-07T18:43:35.733Z,13.85
2019-04-07T18:46:25.362Z,13.95
2019-04-07T18:49:18.049Z,13.64
2019-04-07T18:52:22.654Z,13.65
2019-04-07T18:55:18.193Z,13.44
2019-04-07T18:58:22.777Z,13.38
2019-04-07T19:01:30.488Z,13.37
2019-04-07T19:04:28.141Z,13.37
2019-04-07T19:07:10.040Z,13.27
2019-04-07T19:10:07.227Z,13.22
2019-04-07T19:13:05.629Z,13.21
2019-04-07T19:15:55.606Z,13.26
2019-04-07T19:19:00.502Z,13.20
2019-04-07T19:22:00.509Z,13.20
2019-04-07T19:24:47.607Z,13.11
2019-04-07T19:27:40.617Z,13.22
2019-04-07T19:30:29.827Z,13.18
2019-04-07T19:33:24.056Z,13.13
2019-04-07T19:36:17.530Z,13.14
2019-04-07T19:39:15.160Z,13.12
2019-04-07T19:42:01.389Z,13.05
2019-04-07T19:44:59.533Z,12.99
2019-04-07T19:47:54.947Z,13.00
2019-04-07T19:50:58.639Z,12.92
2019-04-07T19:54:04.327Z,12.79
2019-04-07T19:56:48.814Z,12.83
2019-04-07T19:59:44.282Z,12.85
2019-04-07T20:02:40.470Z,12.81
2019-04-07T20:05:40.859Z,12.70
2019-04-07T20:08:45.918Z,12.57
2019-04-07T20:11:43.746Z,12.49
2019-04-07T20:14:46.551Z,12.39
2019-04-07T20:17:40.924Z,12.41
2019-04-07T20:20:30.236Z,12.53
2019-04-07T20:23:27.773Z,12.34
2019-04-07T20:26:22.744Z,12.04
2019-04-07T20:29:22.374Z,11.76
2019-04-07T20:32:26.103Z,11.65
2019-04-07T20:35:18.706Z,11.63
2019-04-07T20:38:10.550Z,11.64
2019-04-07T20:41:00.960Z,11.57
2019-04-07T20:43:57.371Z,11.50
2019-04-07T20:46:59.032Z,11.46
2019-04-07T20:49:40.407Z,11.40
2019-04-07T20:52:36.201Z,11.44
2019-04-07T20:55:42.699Z,11.41
2019-04-07T20:58:47.269Z,11.42
2019-04-07T21:01:42.960Z,11.38
2019-04-07T21:04:41.742Z,11.34
2019-04-07T21:07:31.250Z,11.36
2019-04-07T21:10:16.124Z,11.27
2019-04-07T21:13:09.658Z,11.33
2019-04-07T21:16:01.543Z,11.36
2019-04-07T21:19:04.165Z,11.34
2019-04-07T21:21:54.180Z,11.35
2019-04-07T21:24:51.738Z,11.43
2019-04-07T21:27:47.793Z,11.42
2019-04-07T21:30:36.703Z,11.39
2019-04-07T21:33:26.972Z,11.42
2019-04-07T21:36:14.223Z,11.42
2019-04-07T21:39:13.027Z,11.43
2019-04-07T21:42:22.249Z,11.43
2019-04-07T21:45:32.378Z,11.44
2019-04-07T21:48:18.550Z,11.50
2019-04-07T21:51:10.722Z,11.59
2019-04-07T21:53:50.415Z,11.69
2019-04-07T21:56:48.452Z,11.69
2019-04-07T21:59:36.190Z,11.67
2019-04-07T22:02:29.259Z,11.69
2019-04-07T22:05:24.011Z,11.63
2019-04-07T22:08:10.932Z,11.58
2019-04-07T22:10:40.245Z,11.52
2019-04-07T22:13:12.627Z,11.39
2019-04-07T22:15:49.316Z,11.40
2019-04-07T22:18:20.457Z,11.38
2019-04-07T22:20:55.538Z,11.31
2019-04-07T22:23:29.973Z,11.37
2019-04-07T22:26:10.671Z,11.33
2019-04-07T22:28:41.478Z,11.29
2019-04-07T22:31:19.091Z,11.18
2019-04-07T22:33:57.417Z,11.15
2019-04-07T22:36:29.529Z,11.15
2019-04-07T22:39:05.818Z,11.14
2019-04-07T22:41:41.784Z,11.07
2019-04-07T22:44:15.602Z,11.09
2019-04-07T22:46:52.107Z,11.24
2019-04-07T22:49:28.478Z,11.20
2019-04-07T22:52:01.270Z,11.14
2019-04-07T22:54:35.068Z,11.10
2019-04-07T22:57:12.786Z,11.07
2019-04-07T22:59:44.596Z,11.07
2019-04-07T23:02:18.217Z,11.07
2019-04-07T23:04:52.646Z,11.09
2019-04-07T23:07:26.340Z,11.05
2019-04-07T23:10:00.458Z,11.02
2019-04-07T23:12:34.545Z,11.03
2019-04-07T23:15:09.258Z,11.03
2019-04-07T23:17:44.557Z,11.10
2019-04-07T23:20:19.878Z,11.11
2019-04-07T23:22:54.253Z,10.98
2019-04-07T23:25:29.044Z,10.95
2019-04-07T23:28:02.798Z,10.97
2019-04-07T23:30:35.227Z,10.95
2019-04-07T23:33:08.478Z,11.08
2019-04-07T23:35:41.617Z,11.01
2019-04-07T23:38:15.556Z,10.99
2019-04-07T23:40:49.333Z,10.95
2019-04-07T23:43:22.793Z,10.96
2019-04-07T23:45:55.973Z,10.98
2019-04-07T23:48:30.605Z,10.94
2019-04-07T23:51:04.371Z,10.97
2019-04-07T23:54:16.314Z,10.94
2019-04-07T23:56:49.912Z,10.99
2019-04-07T23:59:22.860Z,10.96
